Time;durP1;ratioP1;P1;durP2;ratioP2;P2;SDS_P1;SDS_P2;PMS_P1;PMS_P2;Temp;Humidity;BMP_temperature;BMP_pressure;BME280_temperature;BME280_humidity;BME280_pressure;Samples;Min_cycle;Max_cycle;Signal;HPM_P1;HPM_P2
2022/09/06 00:00:28;;;;;;;4.32;1.80;;;11.20;99.90;;;;;;6297139;28;20306;-68
2022/09/06 00:03:33;;;;;;;1.98;1.80;;;11.20;99.90;;;;;;6312288;28;20290;-69
2022/09/06 00:06:39;;;;;;;4.53;1.90;;;11.20;99.90;;;;;;6312796;28;20270;-68
2022/09/06 00:09:46;;;;;;;10.02;2.60;;;11.20;99.90;;;;;;6311428;28;20290;-68
2022/09/06 00:12:51;;;;;;;7.10;2.20;;;11.20;99.90;;;;;;6330657;28;20266;-68
2022/09/06 00:15:57;;;;;;;7.38;2.13;;;11.10;99.90;;;;;;6336741;28;20297;-68
2022/09/06 00:19:02;;;;;;;6.70;2.53;;;11.10;99.90;;;;;;6336662;28;20293;-67
2022/09/06 00:22:08;;;;;;;6.20;2.10;;;11.00;99.90;;;;;;6337280;28;20452;-68
2022/09/06 00:25:15;;;;;;;9.77;2.10;;;11.00;99.90;;;;;;6336455;28;20305;-69
2022/09/06 00:28:20;;;;;;;4.32;1.95;;;11.00;99.90;;;;;;6336646;28;20270;-69
2022/09/06 00:31:27;;;;;;;3.90;2.70;;;11.00;99.90;;;;;;6352575;28;20273;-69
2022/09/06 00:34:33;;;;;;;4.78;1.90;;;10.90;99.90;;;;;;6336359;28;20302;-68
2022/09/06 00:37:38;;;;;;;5.93;1.90;;;10.90;99.90;;;;;;6336654;28;20274;-68
2022/09/06 00:40:45;;;;;;;3.15;2.35;;;10.80;99.90;;;;;;6336281;28;20472;-68
2022/09/06 00:43:50;;;;;;;5.80;2.10;;;10.80;99.90;;;;;;6336284;28;20289;-68
2022/09/06 00:46:56;;;;;;;7.57;2.38;;;10.80;99.90;;;;;;6336278;28;20270;-68
2022/09/06 00:50:01;;;;;;;2.58;2.15;;;10.90;99.90;;;;;;6336126;28;20589;-68
2022/09/06 00:53:13;;;;;;;2.13;1.88;;;10.90;99.90;;;;;;6335590;28;20270;-68
2022/09/06 00:56:19;;;;;;;15.98;4.10;;;10.80;99.90;;;;;;6336379;28;20286;-68
2022/09/06 00:59:27;;;;;;;7.00;2.42;;;10.80;99.90;;;;;;6335259;28;20298;-69
2022/09/06 01:02:32;;;;;;;13.35;2.22;;;10.80;99.90;;;;;;6335932;28;20273;-68
2022/09/06 01:05:46;;;;;;;12.57;3.58;;;10.80;99.90;;;;;;6335969;28;20293;-68
2022/09/06 01:09:04;;;;;;;22.20;3.65;;;10.80;99.90;;;;;;6351433;28;20302;-68
2022/09/06 01:12:26;;;;;;;7.53;2.63;;;10.80;99.90;;;;;;6336199;28;20270;-68
2022/09/06 01:15:41;;;;;;;21.02;3.53;;;10.80;99.90;;;;;;6335672;28;20306;-69
2022/09/06 01:19:05;;;;;;;16.00;2.60;;;10.70;99.90;;;;;;6335683;28;20608;-69
2022/09/06 01:22:37;;;;;;;14.93;3.05;;;10.70;99.90;;;;;;6335432;28;20273;-69
2022/09/06 01:25:58;;;;;;;17.60;3.25;;;10.70;99.90;;;;;;6335455;28;20305;-68
2022/09/06 01:29:07;;;;;;;15.75;2.72;;;10.70;99.90;;;;;;6335609;28;20317;-68
2022/09/06 01:32:20;;;;;;;13.25;3.00;;;10.60;99.90;;;;;;6336126;28;20265;-68
2022/09/06 01:35:32;;;;;;;12.80;2.50;;;10.60;99.90;;;;;;6335459;28;20298;-68
2022/09/06 01:38:38;;;;;;;17.38;2.97;;;10.60;99.90;;;;;;6335436;28;20598;-68
2022/09/06 01:41:43;;;;;;;9.25;2.67;;;10.50;99.90;;;;;;6335759;28;20281;-69
2022/09/06 01:44:53;;;;;;;10.90;2.38;;;10.60;99.90;;;;;;6335406;28;20293;-68
2022/09/06 01:48:09;;;;;;;12.68;2.58;;;10.60;99.90;;;;;;6335795;28;20266;-68
2022/09/06 01:51:22;;;;;;;16.52;2.38;;;10.60;99.90;;;;;;6334735;28;20274;-68
2022/09/06 01:54:41;;;;;;;19.30;2.75;;;10.60;99.90;;;;;;6335015;28;20293;-68
2022/09/06 01:57:59;;;;;;;11.65;2.15;;;10.60;99.90;;;;;;6335089;28;20606;-68
2022/09/06 02:01:11;;;;;;;4.28;2.00;;;10.50;99.90;;;;;;6334690;28;20325;-68
2022/09/06 02:04:21;;;;;;;4.00;2.22;;;10.60;99.90;;;;;;6334331;28;20422;-68
2022/09/06 02:07:29;;;;;;;4.07;1.88;;;10.60;99.90;;;;;;6335520;28;20269;-68
2022/09/06 02:10:40;;;;;;;3.03;1.88;;;10.60;99.90;;;;;;6334649;28;20302;-68
2022/09/06 02:13:48;;;;;;;2.10;1.90;;;10.50;99.90;;;;;;6309692;28;20302;-69
2022/09/06 02:16:56;;;;;;;3.10;1.67;;;10.50;99.90;;;;;;6309428;28;20290;-69
2022/09/06 02:20:08;;;;;;;4.47;1.90;;;10.40;99.90;;;;;;6309435;28;20290;-69
2022/09/06 02:23:15;;;;;;;2.83;2.22;;;10.40;99.90;;;;;;6309627;28;20266;-68
2022/09/06 02:26:25;;;;;;;13.05;2.10;;;10.40;99.90;;;;;;6309819;28;20278;-69
2022/09/06 02:29:30;;;;;;;8.93;2.30;;;10.40;99.90;;;;;;6309726;28;20598;-68
2022/09/06 02:32:42;;;;;;;11.43;2.00;;;10.40;99.90;;;;;;6311702;28;20274;-68
2022/09/06 02:35:49;;;;;;;3.25;2.08;;;10.40;99.90;;;;;;6313923;28;20298;-68
2022/09/06 02:38:55;;;;;;;1.80;1.70;;;10.30;99.90;;;;;;6313583;28;20454;-68
2022/09/06 02:42:01;;;;;;;2.58;1.73;;;10.30;99.90;;;;;;6314497;28;20266;-68
2022/09/06 02:45:07;;;;;;;2.35;1.73;;;10.30;99.90;;;;;;6313644;28;20294;-68
2022/09/06 02:48:18;;;;;;;1.90;1.65;;;10.30;99.90;;;;;;6313230;28;20274;-69
2022/09/06 02:51:23;;;;;;;2.35;1.55;;;10.30;99.90;;;;;;6314259;28;20270;-68
2022/09/06 02:54:29;;;;;;;2.63;1.55;;;10.30;99.90;;;;;;6313241;28;20294;-68
2022/09/06 02:57:35;;;;;;;3.33;1.70;;;10.40;99.90;;;;;;6313906;28;20570;-68
2022/09/06 03:00:40;;;;;;;1.60;1.50;;;10.40;99.90;;;;;;6318611;28;20609;-68
2022/09/06 03:03:47;;;;;;;6.30;1.70;;;10.30;99.90;;;;;;6336298;28;20345;-68
2022/09/06 03:06:53;;;;;;;3.55;1.50;;;10.20;99.90;;;;;;6339160;28;20274;-68
2022/09/06 03:09:59;;;;;;;2.45;1.35;;;10.20;99.90;;;;;;6338603;28;20594;-68
2022/09/06 03:13:04;;;;;;;2.38;1.33;;;10.20;99.90;;;;;;6338296;28;20294;-68
2022/09/06 03:16:11;;;;;;;1.38;1.38;;;10.20;99.90;;;;;;6339037;28;20266;-67
2022/09/06 03:19:18;;;;;;;2.58;1.30;;;10.30;99.90;;;;;;6338109;28;20298;-68
2022/09/06 03:22:24;;;;;;;1.40;1.30;;;10.30;99.90;;;;;;6338703;28;20265;-69
2022/09/06 03:25:29;;;;;;;5.07;1.50;;;10.20;99.90;;;;;;6337919;28;20293;-69
2022/09/06 03:28:35;;;;;;;3.65;1.55;;;10.20;99.90;;;;;;6338317;28;20298;-69
2022/09/06 03:31:40;;;;;;;2.15;1.42;;;10.20;99.90;;;;;;6338460;28;20269;-69
2022/09/06 03:34:47;;;;;;;5.03;1.52;;;10.20;99.90;;;;;;6353825;28;20297;-69
2022/09/06 03:37:52;;;;;;;1.40;1.40;;;10.10;99.90;;;;;;6337333;28;20472;-69
2022/09/06 03:40:58;;;;;;;1.55;1.45;;;10.00;99.90;;;;;;6338323;28;20269;-69
2022/09/06 03:44:03;;;;;;;1.55;1.45;;;9.90;99.90;;;;;;6337267;28;20293;-69
2022/09/06 03:47:08;;;;;;;3.15;1.42;;;10.00;99.90;;;;;;6338233;28;20278;-69
2022/09/06 03:50:15;;;;;;;1.58;1.35;;;10.20;99.90;;;;;;6337786;28;20310;-69
2022/09/06 03:53:23;;;;;;;1.80;1.40;;;10.20;99.90;;;;;;6337587;28;20290;-70
2022/09/06 03:56:28;;;;;;;1.60;1.48;;;10.00;99.90;;;;;;6337661;28;20266;-67
2022/09/06 03:59:34;;;;;;;1.42;1.40;;;10.00;99.90;;;;;;6336873;28;20521;-70
2022/09/06 04:02:39;;;;;;;1.95;1.35;;;10.00;99.90;;;;;;6318811;28;20453;-68
2022/09/06 04:05:47;;;;;;;1.33;1.30;;;10.10;99.90;;;;;;6337610;28;20269;-68
2022/09/06 04:08:52;;;;;;;1.60;1.50;;;10.00;99.90;;;;;;6336657;28;20619;-70
2022/09/06 04:11:57;;;;;;;1.23;1.23;;;9.90;99.90;;;;;;6336943;28;20282;-68
2022/09/06 04:15:03;;;;;;;1.35;1.35;;;9.80;99.90;;;;;;6336389;28;20356;-67
2022/09/06 04:18:11;;;;;;;2.03;1.70;;;9.80;99.90;;;;;;6336363;28;20588;-68
2022/09/06 04:21:17;;;;;;;1.50;1.50;;;9.80;99.90;;;;;;6336637;28;20269;-68
2022/09/06 04:24:23;;;;;;;1.15;1.15;;;9.90;99.90;;;;;;6336462;28;20293;-69
2022/09/06 04:27:28;;;;;;;1.45;1.45;;;10.00;99.90;;;;;;6336884;28;20269;-68
2022/09/06 04:30:33;;;;;;;1.58;1.50;;;10.00;99.90;;;;;;6336243;28;20293;-69
2022/09/06 04:33:39;;;;;;;1.60;1.50;;;10.00;99.90;;;;;;6336134;28;20289;-69
2022/09/06 04:36:46;;;;;;;1.45;1.40;;;10.00;99.90;;;;;;6336122;28;20533;-69
2022/09/06 04:39:52;;;;;;;1.90;1.48;;;10.10;99.90;;;;;;6335961;28;20430;-69
2022/09/06 04:42:58;;;;;;;2.25;1.30;;;10.10;99.90;;;;;;6335736;28;20295;-69
2022/09/06 04:46:05;;;;;;;3.40;1.55;;;10.00;99.90;;;;;;6336423;28;20565;-68
2022/09/06 04:49:11;;;;;;;4.35;1.33;;;10.00;99.90;;;;;;6335870;28;20484;-68
2022/09/06 04:52:18;;;;;;;2.72;1.73;;;10.10;99.90;;;;;;6336462;28;20266;-68
2022/09/06 04:55:25;;;;;;;2.20;1.50;;;10.10;99.90;;;;;;6334724;28;20294;-69
2022/09/06 04:58:30;;;;;;;1.45;1.45;;;10.20;99.90;;;;;;6325799;28;20294;-69
2022/09/06 05:01:36;;;;;;;4.60;1.60;;;10.20;99.90;;;;;;6324919;28;20290;-69
2022/09/06 05:04:41;;;;;;;1.40;1.40;;;10.40;99.90;;;;;;6311695;28;20294;-69
2022/09/06 05:07:48;;;;;;;2.15;1.58;;;10.50;99.90;;;;;;6335602;28;20301;-69
2022/09/06 05:14:16;;;;;;;3.35;1.65;;;10.60;99.90;;;;;;6324847;28;20299;-69
2022/09/06 05:17:21;;;;;;;2.15;1.55;;;10.60;99.90;;;;;;6309646;28;20290;-69
2022/09/06 05:20:26;;;;;;;1.70;1.70;;;10.60;99.90;;;;;;6310433;28;20291;-69
2022/09/06 05:23:33;;;;;;;2.35;1.58;;;10.60;99.90;;;;;;6310197;28;20294;-69
2022/09/06 05:26:38;;;;;;;2.60;1.70;;;10.60;99.90;;;;;;6310591;28;20289;-69
2022/09/06 05:29:44;;;;;;;2.05;1.60;;;10.50;99.90;;;;;;6309892;28;20597;-69
2022/09/06 05:32:50;;;;;;;1.67;1.67;;;10.60;99.90;;;;;;6332505;28;20386;-69
2022/09/06 05:35:55;;;;;;;1.80;1.70;;;10.70;99.90;;;;;;6335233;28;20266;-68
2022/09/06 05:39:02;;;;;;;4.57;1.85;;;10.60;99.90;;;;;;6334754;28;20297;-68
2022/09/06 05:42:08;;;;;;;4.68;1.80;;;10.70;99.90;;;;;;6334706;28;20301;-69
2022/09/06 05:45:13;;;;;;;1.98;1.95;;;10.70;99.90;;;;;;6335578;28;20274;-67
2022/09/06 05:48:19;;;;;;;4.47;2.10;;;10.70;99.90;;;;;;6334690;28;20309;-68
2022/09/06 05:51:24;;;;;;;1.77;1.65;;;10.80;99.90;;;;;;6335482;28;20274;-67
2022/09/06 05:54:30;;;;;;;4.85;1.80;;;10.90;99.90;;;;;;6334921;28;20298;-67
2022/09/06 05:57:36;;;;;;;2.67;1.60;;;11.00;99.90;;;;;;6334856;28;20293;-69
2022/09/06 06:00:41;;;;;;;2.65;1.63;;;11.00;99.90;;;;;;6334605;28;20586;-68
2022/09/06 06:03:52;;;;;;;2.90;1.70;;;11.10;99.90;;;;;;6334479;28;20297;-68
2022/09/06 06:06:57;;;;;;;1.70;1.60;;;11.20;99.90;;;;;;6312290;28;20267;-68
2022/09/06 06:10:06;;;;;;;4.68;1.80;;;11.40;99.90;;;;;;6315042;28;20274;-68
2022/09/06 06:13:14;;;;;;;1.70;1.60;;;11.40;99.90;;;;;;6314487;28;20464;-68
2022/09/06 06:16:21;;;;;;;4.25;1.60;;;11.50;99.90;;;;;;6314421;28;20286;-68
2022/09/06 06:19:27;;;;;;;4.47;1.73;;;11.70;99.90;;;;;;6313851;28;20302;-68
2022/09/06 06:22:32;;;;;;;3.42;2.17;;;11.70;99.90;;;;;;6314356;28;20322;-68
2022/09/06 06:25:39;;;;;;;5.22;1.70;;;11.90;99.90;;;;;;6314761;28;20347;-69
2022/09/06 06:28:45;;;;;;;8.05;1.60;;;12.00;99.90;;;;;;6314151;28;20354;-68
2022/09/06 06:31:50;;;;;;;6.80;1.75;;;12.10;99.90;;;;;;6313531;28;20305;-68
2022/09/06 06:34:57;;;;;;;1.60;1.35;;;12.20;99.90;;;;;;6314111;28;20270;-68
2022/09/06 06:38:03;;;;;;;1.40;1.40;;;12.40;99.90;;;;;;6313952;28;20294;-68
2022/09/06 06:41:11;;;;;;;1.67;1.30;;;12.50;99.90;;;;;;6313764;28;20330;-68
2022/09/06 06:44:16;;;;;;;2.65;1.30;;;12.70;99.90;;;;;;6313626;28;20294;-68
2022/09/06 06:47:22;;;;;;;4.57;1.20;;;12.80;99.90;;;;;;6313780;28;20305;-68
2022/09/06 06:50:27;;;;;;;4.70;1.40;;;13.00;99.90;;;;;;6313744;28;20278;-68
2022/09/06 06:53:34;;;;;;;1.23;1.23;;;13.20;99.90;;;;;;6313398;28;20513;-68
2022/09/06 06:56:41;;;;;;;2.95;1.38;;;13.30;99.90;;;;;;6313516;28;20571;-68
2022/09/06 06:59:46;;;;;;;7.35;1.33;;;13.60;99.90;;;;;;6312621;28;20598;-68
2022/09/06 07:02:54;;;;;;;1.50;1.38;;;13.80;99.90;;;;;;6313039;28;20293;-69
2022/09/06 07:06:00;;;;;;;1.92;1.40;;;13.90;99.90;;;;;;6313637;28;20263;-68
2022/09/06 07:09:22;;;;;;;5.57;1.20;;;14.00;99.90;;;;;;6312921;28;20303;-69
2022/09/06 07:12:29;;;;;;;6.65;1.33;;;14.00;99.90;;;;;;6312883;28;20289;-69
2022/09/06 07:15:34;;;;;;;2.63;1.70;;;14.10;99.90;;;;;;6313642;28;20266;-70
2022/09/06 07:18:41;;;;;;;1.55;1.45;;;14.10;99.90;;;;;;6311803;28;20479;-69
2022/09/06 07:21:47;;;;;;;3.95;1.20;;;14.20;99.90;;;;;;6312812;28;20286;-69
2022/09/06 07:24:52;;;;;;;3.60;1.27;;;14.20;99.90;;;;;;6313367;28;20282;-69
2022/09/06 07:28:00;;;;;;;2.05;1.20;;;14.20;99.90;;;;;;6312659;28;20578;-69
2022/09/06 07:31:11;;;;;;;2.50;1.75;;;14.30;99.90;;;;;;6312744;28;20271;-69
2022/09/06 07:34:38;;;;;;;4.07;1.10;;;14.30;99.90;;;;;;6312400;28;20294;-69
2022/09/06 07:37:43;;;;;;;2.25;1.13;;;14.40;99.90;;;;;;6312184;28;20298;-69
2022/09/06 07:40:53;;;;;;;4.97;1.17;;;14.40;99.90;;;;;;6312511;28;20282;-69
2022/09/06 07:44:00;;;;;;;2.13;1.08;;;14.50;99.90;;;;;;6312168;28;20294;-69
2022/09/06 07:47:07;;;;;;;1.75;1.10;;;14.50;99.90;;;;;;6311618;28;20560;-69
2022/09/06 07:50:33;;;;;;;0.93;0.90;;;14.50;99.90;;;;;;6312748;28;20278;-69
2022/09/06 07:53:55;;;;;;;1.02;1.02;;;14.50;99.90;;;;;;6312089;28;20299;-69
2022/09/06 07:57:21;;;;;;;2.45;1.30;;;14.70;99.90;;;;;;6311568;28;20282;-69
2022/09/06 08:00:28;;;;;;;1.10;0.93;;;14.70;99.70;;;;;;6322022;28;20306;-69
2022/09/06 08:03:33;;;;;;;1.27;1.00;;;14.80;99.80;;;;;;6336712;28;20293;-68
2022/09/06 08:06:41;;;;;;;1.25;1.00;;;14.80;99.90;;;;;;6337434;28;20261;-68
2022/09/06 08:10:08;;;;;;;0.90;0.90;;;14.80;99.50;;;;;;6336631;28;20282;-69
2022/09/06 08:13:16;;;;;;;1.65;1.10;;;14.90;99.80;;;;;;6336516;28;20293;-69
2022/09/06 08:16:26;;;;;;;1.33;1.20;;;15.00;99.90;;;;;;6337267;28;20270;-68
2022/09/06 08:19:33;;;;;;;2.10;1.00;;;15.00;99.80;;;;;;6336402;28;20290;-69
2022/09/06 08:22:38;;;;;;;0.95;0.93;;;15.00;99.30;;;;;;6335979;28;20293;-69
2022/09/06 08:25:43;;;;;;;1.27;1.13;;;15.10;99.60;;;;;;6336810;28;20289;-69
2022/09/06 08:28:54;;;;;;;5.28;2.10;;;15.10;99.70;;;;;;6336609;28;20289;-69
2022/09/06 08:32:01;;;;;;;1.48;1.10;;;15.30;99.70;;;;;;6335897;28;20453;-69
2022/09/06 08:35:09;;;;;;;2.70;1.13;;;15.40;99.30;;;;;;6337172;28;20274;-69
2022/09/06 08:38:16;;;;;;;1.02;1.02;;;15.30;99.40;;;;;;6336027;28;20294;-69
2022/09/06 08:41:26;;;;;;;8.02;1.10;;;15.30;99.20;;;;;;6336106;28;20285;-69
2022/09/06 08:44:36;;;;;;;1.30;1.30;;;15.20;99.60;;;;;;6336227;28;20613;-69
2022/09/06 08:48:03;;;;;;;1.30;1.25;;;15.30;99.60;;;;;;6335510;28;20288;-69
2022/09/06 08:51:37;;;;;;;7.38;1.52;;;15.40;99.70;;;;;;6336192;28;20417;-69
2022/09/06 08:54:52;;;;;;;0.90;0.90;;;15.30;99.80;;;;;;6335984;28;20601;-69
2022/09/06 08:58:15;;;;;;;1.55;1.20;;;15.50;99.70;;;;;;6335938;28;20294;-69
2022/09/06 09:01:27;;;;;;;1.10;1.10;;;15.50;99.90;;;;;;6318976;28;20298;-69
2022/09/06 09:04:36;;;;;;;2.10;1.00;;;15.40;99.90;;;;;;6310141;28;20302;-69
2022/09/06 09:07:45;;;;;;;1.67;1.10;;;15.60;99.90;;;;;;6309838;28;20290;-69
2022/09/06 09:10:53;;;;;;;3.35;1.02;;;15.60;99.90;;;;;;6310305;28;20270;-69
2022/09/06 09:14:03;;;;;;;0.90;0.90;;;15.60;99.90;;;;;;6310251;28;20386;-69
2022/09/06 09:17:19;;;;;;;0.93;0.90;;;15.70;99.90;;;;;;6310260;28;20466;-69
2022/09/06 09:20:26;;;;;;;0.80;0.80;;;15.80;99.70;;;;;;6310627;28;20266;-69
2022/09/06 09:23:31;;;;;;;1.00;1.00;;;15.90;99.70;;;;;;6309733;28;20297;-69
2022/09/06 09:26:48;;;;;;;2.00;1.10;;;15.90;99.70;;;;;;6310505;28;20422;-68
2022/09/06 09:30:00;;;;;;;1.42;1.05;;;15.90;99.90;;;;;;6291540;28;20278;-68
2022/09/06 09:33:29;;;;;;;1.38;1.30;;;15.90;99.90;;;;;;6309696;28;20306;-70
2022/09/06 09:36:36;;;;;;;3.80;1.10;;;15.90;99.90;;;;;;6310550;28;20433;-69
2022/09/06 09:39:41;;;;;;;1.08;1.08;;;16.00;99.90;;;;;;6309853;28;20476;-69
2022/09/06 09:42:47;;;;;;;1.30;1.30;;;16.00;99.80;;;;;;6311781;28;20306;-69
2022/09/06 09:46:14;;;;;;;1.13;1.10;;;16.10;99.80;;;;;;6314961;28;20270;-69
2022/09/06 09:49:29;;;;;;;1.40;1.30;;;16.10;99.80;;;;;;6315148;28;20299;-69
2022/09/06 09:52:44;;;;;;;0.95;0.95;;;16.20;98.70;;;;;;6314894;28;20293;-69
2022/09/06 09:55:50;;;;;;;1.10;1.10;;;16.30;98.10;;;;;;6315561;28;20266;-69
2022/09/06 09:58:57;;;;;;;1.33;1.33;;;16.30;98.50;;;;;;6314807;28;20617;-69
2022/09/06 10:02:18;;;;;;;1.30;1.10;;;16.30;98.50;;;;;;6338133;28;20301;-68
2022/09/06 10:05:24;;;;;;;1.65;1.40;;;16.30;98.20;;;;;;6340215;28;20454;-68
2022/09/06 10:08:33;;;;;;;2.15;1.05;;;16.30;98.40;;;;;;6339479;28;20293;-68
2022/09/06 10:11:41;;;;;;;2.95;1.00;;;16.40;98.00;;;;;;6340212;28;20270;-69
2022/09/06 10:14:48;;;;;;;0.95;0.90;;;16.50;97.90;;;;;;6338423;28;20607;-69
2022/09/06 10:17:54;;;;;;;1.25;1.25;;;16.50;97.90;;;;;;6339170;28;20442;-68
2022/09/06 10:21:02;;;;;;;0.98;0.90;;;16.60;98.40;;;;;;6340004;28;20274;-69
2022/09/06 10:24:15;;;;;;;1.35;1.15;;;16.70;97.80;;;;;;6338964;28;20297;-69
2022/09/06 10:27:36;;;;;;;1.23;1.17;;;16.80;97.60;;;;;;6339118;28;20289;-69
2022/09/06 10:31:06;;;;;;;1.02;1.02;;;16.80;97.50;;;;;;6339627;28;20561;-69
2022/09/06 10:34:44;;;;;;;1.75;1.00;;;16.80;97.70;;;;;;6339198;28;20466;-69
2022/09/06 10:38:02;;;;;;;1.23;1.23;;;16.80;97.60;;;;;;6338664;28;20297;-69
2022/09/06 10:41:28;;;;;;;1.00;1.00;;;16.80;97.90;;;;;;6339365;28;20438;-69
2022/09/06 10:44:49;;;;;;;3.90;1.45;;;16.90;97.90;;;;;;6338877;28;20366;-70
2022/09/06 10:48:01;;;;;;;1.10;1.10;;;16.90;97.80;;;;;;6338677;28;20307;-69
2022/09/06 10:51:17;;;;;;;1.33;1.10;;;17.00;97.80;;;;;;6339257;28;20269;-69
2022/09/06 10:54:24;;;;;;;0.95;0.95;;;17.00;98.00;;;;;;6338938;28;20302;-69
2022/09/06 10:57:36;;;;;;;5.70;1.35;;;17.10;97.60;;;;;;6338532;28;20286;-69
2022/09/06 11:01:01;;;;;;;1.27;1.27;;;17.20;97.50;;;;;;6338842;28;20294;-69
2022/09/06 11:04:11;;;;;;;1.00;1.00;;;17.40;97.30;;;;;;6338092;28;20297;-69
2022/09/06 11:07:28;;;;;;;1.45;1.38;;;17.50;97.20;;;;;;6313546;28;20295;-69
2022/09/06 11:10:36;;;;;;;1.10;1.10;;;17.50;97.00;;;;;;6313079;28;20464;-69
2022/09/06 11:13:43;;;;;;;0.90;0.90;;;17.50;96.70;;;;;;6313165;28;20478;-69
2022/09/06 11:16:51;;;;;;;1.10;1.10;;;17.50;96.30;;;;;;6313198;28;20468;-69
2022/09/06 11:20:05;;;;;;;2.47;0.90;;;17.60;96.30;;;;;;6313499;28;20274;-69
2022/09/06 11:23:37;;;;;;;3.72;1.10;;;17.60;96.30;;;;;;6312465;28;20298;-68
2022/09/06 11:26:52;;;;;;;1.30;1.20;;;17.70;96.40;;;;;;6313621;28;20290;-68
2022/09/06 11:30:01;;;;;;;1.30;1.30;;;17.70;96.80;;;;;;6311726;28;20279;-68
2022/09/06 11:33:17;;;;;;;2.45;1.27;;;17.80;96.60;;;;;;6313173;28;20490;-68
2022/09/06 11:36:34;;;;;;;0.82;0.82;;;17.80;96.00;;;;;;6313161;28;20271;-69
2022/09/06 11:39:41;;;;;;;5.38;1.00;;;17.90;96.10;;;;;;6312342;28;20398;-69
2022/09/06 11:43:18;;;;;;;1.00;1.00;;;18.00;96.50;;;;;;6312168;28;20295;-69
2022/09/06 11:47:06;;;;;;;1.38;1.20;;;18.00;96.20;;;;;;6312751;28;20267;-69
2022/09/06 11:51:05;;;;;;;1.20;1.20;;;18.10;95.60;;;;;;6312484;28;20279;-68
2022/09/06 11:54:26;;;;;;;1.00;1.00;;;18.10;95.80;;;;;;6312243;28;20383;-69
2022/09/06 11:57:31;;;;;;;1.05;1.05;;;18.20;96.00;;;;;;6312110;28;20298;-69
2022/09/06 12:00:37;;;;;;;1.00;0.85;;;18.20;95.30;;;;;;6312104;28;20299;-68
2022/09/06 12:04:06;;;;;;;1.08;1.08;;;18.20;95.10;;;;;;6312010;28;20298;-69
2022/09/06 12:07:13;;;;;;;1.95;1.05;;;18.30;95.40;;;;;;6336750;28;20298;-69
2022/09/06 12:10:46;;;;;;;1.33;1.02;;;18.30;95.60;;;;;;6337057;28;20269;-68
2022/09/06 12:13:58;;;;;;;1.92;1.10;;;18.30;95.60;;;;;;6336949;28;20302;-68
2022/09/06 12:17:28;;;;;;;0.95;0.95;;;18.40;96.00;;;;;;6336683;28;20277;-68
2022/09/06 12:21:03;;;;;;;0.93;0.93;;;18.40;95.20;;;;;;6336546;28;20269;-68
2022/09/06 12:24:54;;;;;;;1.45;0.90;;;18.40;95.10;;;;;;6336619;28;20302;-68
2022/09/06 12:28:01;;;;;;;1.05;1.05;;;18.50;94.90;;;;;;6336774;28;20463;-69
2022/09/06 12:31:38;;;;;;;1.80;1.00;;;18.60;95.00;;;;;;6336832;28;20413;-68
2022/09/06 12:34:45;;;;;;;1.00;1.00;;;18.60;95.20;;;;;;6236146;28;20300;-68
2022/09/06 12:37:54;;;;;;;2.10;1.10;;;18.50;94.80;;;;;;6336255;28;20290;-69
2022/09/06 12:41:02;;;;;;;1.20;1.10;;;18.70;95.00;;;;;;6337003;28;20576;-67
2022/09/06 12:44:08;;;;;;;2.80;1.08;;;18.70;94.10;;;;;;6336296;28;20298;-69
2022/09/06 12:47:17;;;;;;;1.65;1.17;;;18.80;94.20;;;;;;6336457;28;20294;-69
2022/09/06 12:50:24;;;;;;;1.70;1.70;;;18.90;94.20;;;;;;6336697;28;20531;-67
2022/09/06 12:53:30;;;;;;;0.82;0.82;;;18.90;94.30;;;;;;6336237;28;20293;-67
2022/09/06 12:56:37;;;;;;;1.10;1.10;;;18.90;94.20;;;;;;6335894;28;20265;-68
2022/09/06 12:59:53;;;;;;;1.33;1.23;;;18.90;94.20;;;;;;6335970;28;20313;-68
2022/09/06 13:03:06;;;;;;;2.47;2.10;;;19.00;94.20;;;;;;6335680;28;20600;-68
2022/09/06 13:06:19;;;;;;;1.10;1.10;;;19.00;94.10;;;;;;6335612;28;20289;-69
2022/09/06 13:09:32;;;;;;;1.17;1.17;;;19.10;94.20;;;;;;6336173;28;20297;-69
2022/09/06 13:12:42;;;;;;;1.13;1.13;;;19.10;94.10;;;;;;6335746;28;20294;-68
2022/09/06 13:15:47;;;;;;;1.10;1.10;;;19.00;94.20;;;;;;6336105;28;20275;-68
2022/09/06 13:18:53;;;;;;;1.20;1.20;;;19.00;94.70;;;;;;6335174;28;20306;-69
2022/09/06 13:21:59;;;;;;;1.00;1.00;;;19.00;94.30;;;;;;6335552;28;20274;-69
2022/09/06 13:25:06;;;;;;;1.27;1.20;;;19.10;94.20;;;;;;6335244;28;20285;-68
2022/09/06 13:28:27;;;;;;;1.10;1.10;;;19.00;94.50;;;;;;6335120;28;20339;-69
2022/09/06 13:31:32;;;;;;;1.13;1.10;;;19.00;93.20;;;;;;6335909;28;20266;-69
2022/09/06 13:34:39;;;;;;;1.13;1.02;;;19.10;93.50;;;;;;6335220;28;20297;-69
2022/09/06 13:37:48;;;;;;;2.40;2.00;;;19.10;93.70;;;;;;6334684;28;20293;-69
2022/09/06 13:40:53;;;;;;;1.30;1.30;;;19.10;92.90;;;;;;6335966;28;20270;-68
2022/09/06 13:44:29;;;;;;;1.85;1.40;;;19.10;93.20;;;;;;6335122;28;20301;-67
2022/09/06 13:47:35;;;;;;;1.10;1.10;;;19.10;94.00;;;;;;6335236;28;20448;-68
2022/09/06 13:50:41;;;;;;;2.45;1.20;;;19.30;92.50;;;;;;6335304;28;20270;-69
2022/09/06 13:53:46;;;;;;;1.27;1.25;;;19.30;92.40;;;;;;6334864;28;20313;-69
2022/09/06 13:56:52;;;;;;;1.10;1.10;;;19.30;92.80;;;;;;6334533;28;20277;-69
2022/09/06 13:59:58;;;;;;;1.80;1.40;;;19.30;92.80;;;;;;6335174;28;20294;-68
2022/09/06 14:03:04;;;;;;;1.05;1.05;;;19.30;92.30;;;;;;6334856;28;20473;-68
2022/09/06 14:06:11;;;;;;;1.20;1.20;;;19.30;92.50;;;;;;6334433;28;20282;-67
2022/09/06 14:09:17;;;;;;;1.10;1.10;;;19.30;93.00;;;;;;6334217;28;20584;-69
2022/09/06 14:12:22;;;;;;;5.07;1.40;;;19.30;93.80;;;;;;6334580;28;20475;-67
2022/09/06 14:15:29;;;;;;;3.80;1.30;;;19.30;93.70;;;;;;6334519;28;20273;-68
2022/09/06 14:18:35;;;;;;;2.53;1.20;;;19.30;93.00;;;;;;6333254;28;20298;-69
2022/09/06 14:21:40;;;;;;;1.23;1.23;;;19.30;92.70;;;;;;6335153;28;20274;-69
2022/09/06 14:24:47;;;;;;;1.20;1.20;;;19.40;92.70;;;;;;6334338;28;20348;-69
2022/09/06 14:27:53;;;;;;;1.10;1.10;;;19.40;93.00;;;;;;6335219;28;20289;-69
2022/09/06 14:31:10;;;;;;;1.02;1.02;;;19.40;93.40;;;;;;6338404;28;20286;-69
2022/09/06 14:34:16;;;;;;;1.88;1.30;;;19.40;93.70;;;;;;6338982;28;20488;-69
2022/09/06 14:37:21;;;;;;;1.65;1.10;;;19.40;93.30;;;;;;6338540;28;20295;-69
2022/09/06 14:40:27;;;;;;;1.63;1.17;;;19.30;93.80;;;;;;6339196;28;20424;-69
2022/09/06 14:43:32;;;;;;;1.65;1.10;;;19.40;93.40;;;;;;6338960;28;20293;-69
2022/09/06 14:46:39;;;;;;;1.83;1.10;;;19.40;93.30;;;;;;6339255;28;20290;-68
2022/09/06 14:49:45;;;;;;;1.65;1.20;;;19.40;94.80;;;;;;6338428;28;20597;-68
2022/09/06 14:52:50;;;;;;;2.80;1.45;;;19.40;95.60;;;;;;6337992;28;20605;-69
2022/09/06 14:56:02;;;;;;;1.85;1.70;;;19.40;93.90;;;;;;6339067;28;20278;-68
2022/09/06 14:59:08;;;;;;;1.20;1.20;;;19.40;94.10;;;;;;6338257;28;20477;-68
2022/09/06 15:02:15;;;;;;;1.33;1.33;;;19.40;93.60;;;;;;6314189;28;20298;-67
2022/09/06 15:05:20;;;;;;;2.33;1.30;;;19.40;93.90;;;;;;6313207;28;20503;-68
2022/09/06 15:08:26;;;;;;;1.65;1.00;;;19.40;93.50;;;;;;6312868;28;20294;-68
2022/09/06 15:11:34;;;;;;;1.17;1.10;;;19.40;93.40;;;;;;6313475;28;20270;-70
2022/09/06 15:14:39;;;;;;;1.55;1.30;;;19.30;93.40;;;;;;6312966;28;20290;-69
2022/09/06 15:17:46;;;;;;;1.38;1.38;;;19.30;93.00;;;;;;6312894;28;20294;-69
2022/09/06 15:20:52;;;;;;;1.63;1.60;;;19.30;93.20;;;;;;6312856;28;20266;-69
2022/09/06 15:23:57;;;;;;;1.42;1.30;;;19.30;93.10;;;;;;6312338;28;20299;-69
2022/09/06 15:27:04;;;;;;;3.03;1.48;;;19.30;93.30;;;;;;6312816;28;20286;-69
2022/09/06 15:30:10;;;;;;;1.30;1.30;;;19.30;93.30;;;;;;6313003;28;20554;-69
2022/09/06 15:33:18;;;;;;;1.25;1.25;;;19.20;94.20;;;;;;6312665;28;20301;-69
2022/09/06 15:36:23;;;;;;;3.30;1.50;;;19.20;94.00;;;;;;6312846;28;20273;-69
2022/09/06 15:39:29;;;;;;;2.75;1.30;;;19.10;94.50;;;;;;6310890;28;20298;-68
2022/09/06 15:42:34;;;;;;;1.35;1.35;;;19.20;93.90;;;;;;6312386;28;20294;-69
2022/09/06 15:45:48;;;;;;;1.48;1.38;;;19.20;93.80;;;;;;6312438;28;20266;-69
2022/09/06 15:48:55;;;;;;;4.15;1.23;;;19.20;93.60;;;;;;6312243;28;20303;-70
2022/09/06 15:52:04;;;;;;;1.20;1.20;;;19.20;93.20;;;;;;6311656;28;20463;-68
2022/09/06 15:58:34;;;;;;;1.52;1.42;;;19.10;93.70;;;;;;6311872;28;20298;-69
2022/09/06 16:01:39;;;;;;;1.17;1.15;;;19.20;93.40;;;;;;6332265;28;20293;-68
2022/09/06 16:04:47;;;;;;;1.20;1.20;;;19.10;92.80;;;;;;6336731;28;20278;-68
2022/09/06 16:07:53;;;;;;;3.70;1.50;;;19.10;92.60;;;;;;6336966;28;20301;-68
2022/09/06 16:10:58;;;;;;;7.40;1.90;;;19.10;92.80;;;;;;6337205;28;20270;-69
2022/09/06 16:14:04;;;;;;;6.30;2.25;;;19.10;92.80;;;;;;6336497;28;20298;-68
2022/09/06 16:17:11;;;;;;;3.35;1.80;;;19.00;93.40;;;;;;6336692;28;20313;-68
2022/09/06 16:20:18;;;;;;;2.25;1.55;;;19.00;93.50;;;;;;6336351;28;20269;-69
2022/09/06 16:23:23;;;;;;;2.17;1.90;;;18.90;93.80;;;;;;6336129;28;20302;-69
2022/09/06 16:26:32;;;;;;;2.33;2.08;;;18.90;93.70;;;;;;6336496;28;22145;-69
2022/09/06 16:29:37;;;;;;;12.45;4.07;;;18.90;94.40;;;;;;6336232;28;20297;-69
2022/09/06 16:32:43;;;;;;;5.38;2.70;;;18.80;94.60;;;;;;6336281;28;20418;-69